sensor_id;sensor_type;location;lat;lon;timestamp;pressure;altitude;pressure_sealevel;temperature;humidity
63901;BME280;50538;53.482;10.294;2023-05-17T00:06:06;101472.97;;;10.05;90.47
63901;BME280;50538;53.482;10.294;2023-05-17T00:16:07;101484.16;;;9.98;89.63
63901;BME280;50538;53.482;10.294;2023-05-17T00:26:07;101486.72;;;9.81;86.56
63901;BME280;50538;53.482;10.294;2023-05-17T00:36:08;101481.72;;;9.68;84.65
63901;BME280;50538;53.482;10.294;2023-05-17T00:46:08;101481.84;;;9.57;84.44
63901;BME280;50538;53.482;10.294;2023-05-17T00:56:08;101492.03;;;9.42;84.12
63901;BME280;50538;53.482;10.294;2023-05-17T01:06:11;101502.13;;;9.29;85.11
63901;BME280;50538;53.482;10.294;2023-05-17T01:16:17;101494.44;;;9.26;85.53
63901;BME280;50538;53.482;10.294;2023-05-17T01:36:32;101517.59;;;9.34;85.56
63901;BME280;50538;53.482;10.294;2023-05-17T01:46:40;101521.94;;;9.35;85.54
63901;BME280;50538;53.482;10.294;2023-05-17T01:56:42;101524.69;;;9.23;83.89
63901;BME280;50538;53.482;10.294;2023-05-17T02:06:46;101538.63;;;9.06;82.39
63901;BME280;50538;53.482;10.294;2023-05-17T02:16:47;101545.38;;;8.99;82.25
63901;BME280;50538;53.482;10.294;2023-05-17T02:26:47;101549.50;;;8.82;82.58
63901;BME280;50538;53.482;10.294;2023-05-17T02:36:47;101556.63;;;8.72;82.52
63901;BME280;50538;53.482;10.294;2023-05-17T02:46:48;101570.72;;;8.52;82.03
63901;BME280;50538;53.482;10.294;2023-05-17T02:56:48;101574.69;;;8.37;82.11
63901;BME280;50538;53.482;10.294;2023-05-17T03:06:48;101587.56;;;8.20;80.83
63901;BME280;50538;53.482;10.294;2023-05-17T03:16:49;101595.69;;;8.08;79.98
63901;BME280;50538;53.482;10.294;2023-05-17T03:26:50;101621.22;;;7.97;79.79
63901;BME280;50538;53.482;10.294;2023-05-17T03:36:50;101616.81;;;7.87;78.82
63901;BME280;50538;53.482;10.294;2023-05-17T03:46:50;101643.88;;;7.79;79.02
63901;BME280;50538;53.482;10.294;2023-05-17T03:56:51;101648.56;;;7.76;79.06
63901;BME280;50538;53.482;10.294;2023-05-17T04:06:51;101659.28;;;7.74;78.12
63901;BME280;50538;53.482;10.294;2023-05-17T04:16:51;101667.94;;;7.76;77.42
63901;BME280;50538;53.482;10.294;2023-05-17T04:26:52;101672.34;;;7.87;77.83
63901;BME280;50538;53.482;10.294;2023-05-17T04:36:52;101692.53;;;7.88;76.70
63901;BME280;50538;53.482;10.294;2023-05-17T04:46:52;101707.75;;;8.07;74.51
63901;BME280;50538;53.482;10.294;2023-05-17T04:56:52;101725.25;;;8.19;70.67
63901;BME280;50538;53.482;10.294;2023-05-17T05:06:53;101731.28;;;8.42;66.75
63901;BME280;50538;53.482;10.294;2023-05-17T05:16:53;101758.75;;;8.61;65.52
63901;BME280;50538;53.482;10.294;2023-05-17T05:26:54;101766.63;;;8.73;65.41
63901;BME280;50538;53.482;10.294;2023-05-17T05:36:55;101785.03;;;8.95;65.76
63901;BME280;50538;53.482;10.294;2023-05-17T05:46:55;101789.13;;;9.20;66.58
63901;BME280;50538;53.482;10.294;2023-05-17T05:56:55;101796.00;;;9.62;64.12
63901;BME280;50538;53.482;10.294;2023-05-17T06:06:56;101819.78;;;9.74;64.66
63901;BME280;50538;53.482;10.294;2023-05-17T06:16:56;101818.50;;;9.68;61.00
63901;BME280;50538;53.482;10.294;2023-05-17T06:26:56;101841.91;;;10.03;59.52
63901;BME280;50538;53.482;10.294;2023-05-17T06:36:57;101846.94;;;10.46;57.84
63901;BME280;50538;53.482;10.294;2023-05-17T06:46:57;101859.66;;;10.81;57.83
63901;BME280;50538;53.482;10.294;2023-05-17T06:57:03;101881.19;;;10.78;56.03
63901;BME280;50538;53.482;10.294;2023-05-17T07:07:03;101896.81;;;10.62;55.20
63901;BME280;50538;53.482;10.294;2023-05-17T07:17:04;101921.19;;;10.86;54.79
63901;BME280;50538;53.482;10.294;2023-05-17T07:27:04;101913.25;;;11.06;49.39
63901;BME280;50538;53.482;10.294;2023-05-17T07:37:05;101927.94;;;11.10;49.64
63901;BME280;50538;53.482;10.294;2023-05-17T07:47:05;101926.78;;;11.32;49.78
63901;BME280;50538;53.482;10.294;2023-05-17T07:57:05;101941.22;;;11.39;49.00
63901;BME280;50538;53.482;10.294;2023-05-17T08:07:06;101960.78;;;11.67;50.36
63901;BME280;50538;53.482;10.294;2023-05-17T08:17:06;101970.78;;;11.92;48.40
63901;BME280;50538;53.482;10.294;2023-05-17T08:27:06;101951.84;;;12.05;50.95
63901;BME280;50538;53.482;10.294;2023-05-17T08:37:06;101979.91;;;12.26;48.32
63901;BME280;50538;53.482;10.294;2023-05-17T08:47:08;101983.06;;;12.12;50.47
63901;BME280;50538;53.482;10.294;2023-05-17T08:57:10;101989.59;;;12.65;50.62
63901;BME280;50538;53.482;10.294;2023-05-17T09:07:12;102010.38;;;12.14;50.16
63901;BME280;50538;53.482;10.294;2023-05-17T09:17:20;101994.22;;;13.08;47.25
63901;BME280;50538;53.482;10.294;2023-05-17T09:27:22;101997.81;;;13.78;45.32
63901;BME280;50538;53.482;10.294;2023-05-17T09:37:22;102001.09;;;13.89;45.41
63901;BME280;50538;53.482;10.294;2023-05-17T09:47:30;101996.91;;;14.13;46.60
63901;BME280;50538;53.482;10.294;2023-05-17T09:57:37;102004.91;;;14.13;45.14
63901;BME280;50538;53.482;10.294;2023-05-17T10:07:39;102020.94;;;13.69;47.80
63901;BME280;50538;53.482;10.294;2023-05-17T10:17:40;102041.84;;;13.91;46.89
63901;BME280;50538;53.482;10.294;2023-05-17T10:27:41;102036.81;;;14.14;44.78
63901;BME280;50538;53.482;10.294;2023-05-17T10:37:41;102010.41;;;14.87;42.66
63901;BME280;50538;53.482;10.294;2023-05-17T10:47:42;102014.25;;;14.85;43.05
63901;BME280;50538;53.482;10.294;2023-05-17T10:57:42;102012.53;;;15.26;44.61
63901;BME280;50538;53.482;10.294;2023-05-17T11:07:43;102023.75;;;15.30;44.29
63901;BME280;50538;53.482;10.294;2023-05-17T11:27:47;102022.75;;;14.80;42.38
63901;BME280;50538;53.482;10.294;2023-05-17T11:37:51;102024.22;;;14.67;45.63
63901;BME280;50538;53.482;10.294;2023-05-17T11:47:53;102033.66;;;14.45;48.39
63901;BME280;50538;53.482;10.294;2023-05-17T11:57:55;102026.09;;;14.74;47.10
63901;BME280;50538;53.482;10.294;2023-05-17T12:07:56;102022.22;;;15.19;45.00
63901;BME280;50538;53.482;10.294;2023-05-17T12:17:57;102025.03;;;15.09;47.15
63901;BME280;50538;53.482;10.294;2023-05-17T12:28:16;102054.84;;;15.31;46.06
63901;BME280;50538;53.482;10.294;2023-05-17T12:38:21;102045.50;;;16.00;44.06
63901;BME280;50538;53.482;10.294;2023-05-17T12:49:10;102049.19;;;16.07;44.05
63901;BME280;50538;53.482;10.294;2023-05-17T12:59:15;102046.88;;;14.97;45.69
63901;BME280;50538;53.482;10.294;2023-05-17T13:09:17;102063.47;;;15.08;45.75
63901;BME280;50538;53.482;10.294;2023-05-17T13:19:18;102064.22;;;15.27;46.08
63901;BME280;50538;53.482;10.294;2023-05-17T13:29:18;102070.63;;;15.58;43.31
63901;BME280;50538;53.482;10.294;2023-05-17T13:39:21;102059.06;;;15.82;44.45
63901;BME280;50538;53.482;10.294;2023-05-17T13:49:22;102065.09;;;14.93;44.48
63901;BME280;50538;53.482;10.294;2023-05-17T13:59:25;102070.31;;;15.03;44.54
63901;BME280;50538;53.482;10.294;2023-05-17T14:09:25;102081.81;;;16.18;42.36
63901;BME280;50538;53.482;10.294;2023-05-17T14:19:26;102070.41;;;16.33;40.05
63901;BME280;50538;53.482;10.294;2023-05-17T14:29:26;102095.56;;;15.99;44.29
63901;BME280;50538;53.482;10.294;2023-05-17T14:39:29;102091.03;;;15.51;44.50
63901;BME280;50538;53.482;10.294;2023-05-17T14:49:29;102104.06;;;15.46;42.90
63901;BME280;50538;53.482;10.294;2023-05-17T14:59:30;102100.22;;;15.73;42.98
63901;BME280;50538;53.482;10.294;2023-05-17T15:09:30;102107.94;;;15.60;43.17
63901;BME280;50538;53.482;10.294;2023-05-17T15:19:31;102107.41;;;14.98;43.20
63901;BME280;50538;53.482;10.294;2023-05-17T15:29:32;102111.31;;;16.18;41.70
63901;BME280;50538;53.482;10.294;2023-05-17T15:39:33;102118.00;;;15.66;43.86
63901;BME280;50538;53.482;10.294;2023-05-17T15:49:33;102111.13;;;16.20;41.47
63901;BME280;50538;53.482;10.294;2023-05-17T15:59:34;102118.50;;;16.89;39.69
63901;BME280;50538;53.482;10.294;2023-05-17T16:09:34;102125.25;;;15.31;43.63
63901;BME280;50538;53.482;10.294;2023-05-17T16:19:35;102139.63;;;14.88;45.32
63901;BME280;50538;53.482;10.294;2023-05-17T16:29:35;102155.34;;;15.25;43.37
63901;BME280;50538;53.482;10.294;2023-05-17T16:39:38;102170.94;;;14.70;44.05
63901;BME280;50538;53.482;10.294;2023-05-17T16:49:39;102168.91;;;14.02;46.52
63901;BME280;50538;53.482;10.294;2023-05-17T16:59:43;102182.69;;;14.51;46.67
63901;BME280;50538;53.482;10.294;2023-05-17T17:09:43;102178.59;;;14.39;47.79
63901;BME280;50538;53.482;10.294;2023-05-17T17:19:43;102186.94;;;14.00;47.73
63901;BME280;50538;53.482;10.294;2023-05-17T17:29:44;102186.19;;;13.63;46.43
63901;BME280;50538;53.482;10.294;2023-05-17T17:39:44;102196.47;;;13.40;48.78
63901;BME280;50538;53.482;10.294;2023-05-17T17:49:45;102208.78;;;13.13;48.89
63901;BME280;50538;53.482;10.294;2023-05-17T17:59:45;102228.97;;;12.79;49.71
63901;BME280;50538;53.482;10.294;2023-05-17T18:09:45;102244.56;;;12.64;50.52
63901;BME280;50538;53.482;10.294;2023-05-17T18:19:46;102254.78;;;12.40;51.21
63901;BME280;50538;53.482;10.294;2023-05-17T18:29:46;102252.81;;;12.03;50.60
63901;BME280;50538;53.482;10.294;2023-05-17T18:39:47;102261.47;;;11.86;52.77
63901;BME280;50538;53.482;10.294;2023-05-17T18:49:47;102256.25;;;11.65;53.91
63901;BME280;50538;53.482;10.294;2023-05-17T18:59:48;102253.75;;;11.33;54.74
63901;BME280;50538;53.482;10.294;2023-05-17T19:09:48;102272.34;;;11.33;53.36
63901;BME280;50538;53.482;10.294;2023-05-17T19:19:48;102280.84;;;11.27;53.94
63901;BME280;50538;53.482;10.294;2023-05-17T19:29:49;102287.94;;;11.17;53.69
63901;BME280;50538;53.482;10.294;2023-05-17T19:39:49;102297.06;;;11.24;53.12
63901;BME280;50538;53.482;10.294;2023-05-17T19:49:50;102277.28;;;11.07;53.42
63901;BME280;50538;53.482;10.294;2023-05-17T19:59:50;102294.66;;;10.90;53.72
63901;BME280;50538;53.482;10.294;2023-05-17T20:09:51;102292.16;;;10.78;53.99
63901;BME280;50538;53.482;10.294;2023-05-17T20:19:52;102285.66;;;10.71;55.67
63901;BME280;50538;53.482;10.294;2023-05-17T20:29:52;102298.47;;;10.66;56.64
63901;BME280;50538;53.482;10.294;2023-05-17T20:39:53;102297.06;;;10.61;55.78
63901;BME280;50538;53.482;10.294;2023-05-17T20:49:56;102299.56;;;10.42;54.75
63901;BME280;50538;53.482;10.294;2023-05-17T20:59:57;102295.09;;;10.43;55.00
63901;BME280;50538;53.482;10.294;2023-05-17T21:09:58;102309.00;;;10.35;56.48
63901;BME280;50538;53.482;10.294;2023-05-17T21:19:58;102298.41;;;10.24;56.43
63901;BME280;50538;53.482;10.294;2023-05-17T21:29:59;102290.13;;;10.17;57.06
63901;BME280;50538;53.482;10.294;2023-05-17T21:39:59;102303.41;;;10.06;57.69
63901;BME280;50538;53.482;10.294;2023-05-17T21:50:01;102305.47;;;10.03;57.98
63901;BME280;50538;53.482;10.294;2023-05-17T22:00:02;102307.66;;;9.97;57.91
63901;BME280;50538;53.482;10.294;2023-05-17T22:10:04;102318.28;;;9.86;58.96
63901;BME280;50538;53.482;10.294;2023-05-17T22:20:06;102323.25;;;9.91;58.58
63901;BME280;50538;53.482;10.294;2023-05-17T22:30:10;102332.28;;;9.77;58.35
63901;BME280;50538;53.482;10.294;2023-05-17T22:40:11;102348.31;;;9.64;58.04
63901;BME280;50538;53.482;10.294;2023-05-17T22:50:11;102349.50;;;9.49;58.14
63901;BME280;50538;53.482;10.294;2023-05-17T23:00:14;102350.84;;;9.33;59.01
63901;BME280;50538;53.482;10.294;2023-05-17T23:10:15;102358.66;;;9.23;59.51
63901;BME280;50538;53.482;10.294;2023-05-17T23:20:16;102352.97;;;9.16;59.66
63901;BME280;50538;53.482;10.294;2023-05-17T23:30:18;102366.09;;;9.18;59.06
63901;BME280;50538;53.482;10.294;2023-05-17T23:40:18;102366.22;;;9.16;59.37
63901;BME280;50538;53.482;10.294;2023-05-17T23:50:19;102360.09;;;9.16;59.35
